Time;durP1;ratioP1;P1;durP2;ratioP2;P2;SDS_P1;SDS_P2;PMS_P1;PMS_P2;Temp;Humidity;BMP_temperature;BMP_pressure;BME280_temperature;BME280_humidity;BME280_pressure;Samples;Min_cycle;Max_cycle;Signal;HPM_P1;HPM_P2
2022/03/25 00:02:18;;;;;;;33.17;22.23;;;8.60;50.50;;;;;;4989134;28;20410;-48
2022/03/25 00:04:46;;;;;;;34.33;21.20;;;8.70;50.50;;;;;;4981142;28;20494;-51
2022/03/25 00:07:16;;;;;;;34.33;22.02;;;8.60;50.50;;;;;;4983635;28;20039;-49
2022/03/25 00:09:44;;;;;;;33.28;23.27;;;8.60;50.70;;;;;;4978701;28;20038;-46
2022/03/25 00:12:12;;;;;;;34.67;22.48;;;8.50;50.70;;;;;;4968310;28;20115;-51
2022/03/25 00:14:38;;;;;;;31.95;22.70;;;8.50;50.90;;;;;;4978727;28;20038;-50
2022/03/25 00:17:08;;;;;;;37.50;24.38;;;8.50;51.00;;;;;;4979261;28;20118;-47
2022/03/25 00:19:36;;;;;;;33.90;22.83;;;8.50;51.10;;;;;;4970636;28;20046;-49
2022/03/25 00:22:03;;;;;;;31.73;22.52;;;8.40;51.10;;;;;;4985965;28;20521;-46
2022/03/25 00:24:30;;;;;;;36.13;22.63;;;8.40;51.00;;;;;;4982078;28;20046;-47
2022/03/25 00:26:56;;;;;;;37.35;23.58;;;8.40;51.10;;;;;;4991276;28;20046;-52
2022/03/25 00:29:23;;;;;;;34.65;22.17;;;8.40;51.30;;;;;;4985087;28;20053;-50
2022/03/25 00:31:52;;;;;;;38.65;23.50;;;8.40;51.30;;;;;;4976334;28;20046;-47
2022/03/25 00:34:19;;;;;;;37.13;23.45;;;8.30;51.40;;;;;;4988890;28;20165;-49
2022/03/25 00:36:48;;;;;;;34.03;22.50;;;8.30;51.50;;;;;;4984639;28;20046;-46
2022/03/25 00:39:15;;;;;;;33.72;21.63;;;8.30;51.50;;;;;;4980747;28;20067;-46
2022/03/25 00:41:44;;;;;;;32.13;21.10;;;8.30;51.50;;;;;;5006182;28;20097;-50
2022/03/25 00:44:12;;;;;;;32.90;22.15;;;8.30;51.40;;;;;;4983645;28;20153;-47
2022/03/25 00:46:39;;;;;;;35.47;23.15;;;8.20;51.40;;;;;;4981313;28;20053;-47
2022/03/25 00:49:06;;;;;;;32.67;21.70;;;8.30;51.50;;;;;;4982522;28;20545;-48
2022/03/25 00:51:34;;;;;;;34.38;21.58;;;8.20;51.40;;;;;;4977632;28;20507;-47
2022/03/25 00:54:03;;;;;;;33.55;21.88;;;8.20;51.50;;;;;;4982292;28;20047;-51
2022/03/25 00:56:33;;;;;;;33.73;22.37;;;8.10;51.50;;;;;;4951509;28;20051;-47
2022/03/25 00:59:00;;;;;;;34.67;21.98;;;8.10;51.40;;;;;;4961423;28;20565;-51
2022/03/25 01:01:31;;;;;;;34.97;21.40;;;8.10;51.50;;;;;;4988007;28;20482;-49
2022/03/25 01:03:59;;;;;;;34.05;22.02;;;8.00;51.50;;;;;;4986561;28;20125;-48
2022/03/25 01:06:27;;;;;;;32.70;21.50;;;8.00;51.60;;;;;;4989216;28;20046;-46
2022/03/25 01:08:55;;;;;;;32.20;21.50;;;8.00;51.70;;;;;;4967515;28;20055;-51
2022/03/25 01:11:28;;;;;;;32.45;21.88;;;8.00;51.80;;;;;;4974154;28;20063;-48
2022/03/25 01:13:55;;;;;;;33.65;21.42;;;7.90;52.10;;;;;;4971183;28;20050;-51
2022/03/25 01:16:22;;;;;;;31.67;20.40;;;7.90;52.50;;;;;;4970574;28;20677;-47
2022/03/25 01:18:49;;;;;;;31.80;21.20;;;7.90;51.90;;;;;;4970509;28;20095;-45
2022/03/25 01:21:17;;;;;;;30.13;19.88;;;7.90;52.00;;;;;;4988783;28;20100;-48
2022/03/25 01:23:48;;;;;;;35.10;21.05;;;7.80;51.90;;;;;;4999370;28;20569;-47
2022/03/25 01:26:15;;;;;;;33.53;21.63;;;7.80;51.90;;;;;;4990469;28;20855;-48
2022/03/25 01:28:43;;;;;;;31.67;19.52;;;7.80;52.00;;;;;;4971342;28;20844;-48
2022/03/25 01:31:15;;;;;;;30.92;19.80;;;7.70;52.00;;;;;;4977893;28;20469;-49
2022/03/25 01:33:45;;;;;;;31.25;20.02;;;7.80;52.30;;;;;;4990997;28;20075;-50
2022/03/25 01:36:19;;;;;;;31.42;20.08;;;7.70;52.20;;;;;;4979342;28;20413;-46
2022/03/25 01:38:46;;;;;;;32.97;20.48;;;7.70;52.20;;;;;;4985095;28;20110;-51
2022/03/25 01:41:17;;;;;;;32.70;20.20;;;7.70;52.10;;;;;;5003232;28;20117;-52
2022/03/25 01:43:59;;;;;;;30.42;18.95;;;7.60;52.20;;;;;;4988428;28;20046;-49
2022/03/25 01:46:29;;;;;;;32.65;21.52;;;7.60;53.00;;;;;;4972444;28;20397;-47
2022/03/25 01:48:56;;;;;;;31.13;18.92;;;7.60;52.20;;;;;;4990436;28;20100;-47
2022/03/25 01:51:35;;;;;;;33.35;19.80;;;7.60;52.30;;;;;;4982215;28;20050;-49
2022/03/25 01:54:16;;;;;;;32.33;19.73;;;7.50;52.80;;;;;;4989949;28;20557;-50
2022/03/25 01:57:09;;;;;;;31.60;19.17;;;7.50;53.40;;;;;;4980221;28;20045;-52
2022/03/25 01:59:42;;;;;;;32.90;19.83;;;7.50;52.90;;;;;;4981064;28;20454;-50
2022/03/25 02:02:12;;;;;;;29.85;20.42;;;7.40;52.30;;;;;;4990184;28;20133;-46
2022/03/25 02:04:39;;;;;;;37.30;22.20;;;7.40;52.70;;;;;;4973580;28;20159;-47
2022/03/25 02:07:07;;;;;;;33.00;20.77;;;7.40;52.50;;;;;;4969617;28;20057;-46
2022/03/25 02:09:34;;;;;;;30.00;18.90;;;7.40;52.50;;;;;;4973251;28;20050;-49
2022/03/25 02:12:09;;;;;;;31.88;18.67;;;7.30;52.60;;;;;;4986377;28;20051;-49
2022/03/25 02:14:38;;;;;;;27.90;18.08;;;7.30;52.90;;;;;;4987003;28;20057;-50
2022/03/25 02:17:11;;;;;;;33.58;19.98;;;7.30;52.70;;;;;;4997451;28;20141;-52
2022/03/25 02:19:38;;;;;;;32.47;20.15;;;7.30;52.70;;;;;;4989757;28;20058;-46
2022/03/25 02:22:05;;;;;;;33.55;20.60;;;7.20;52.80;;;;;;4976049;28;20457;-50
2022/03/25 02:24:36;;;;;;;30.85;19.90;;;7.20;52.80;;;;;;4977323;28;20057;-47
2022/03/25 02:27:05;;;;;;;32.85;20.50;;;7.20;52.80;;;;;;5000998;28;20043;-46
2022/03/25 02:29:34;;;;;;;33.65;19.73;;;7.20;53.00;;;;;;4993585;28;20046;-47
2022/03/25 02:32:02;;;;;;;32.70;21.15;;;7.10;52.90;;;;;;4994463;28;20054;-48
2022/03/25 02:34:40;;;;;;;31.80;20.00;;;7.10;53.00;;;;;;4974726;28;20050;-50
2022/03/25 02:37:07;;;;;;;35.17;21.67;;;7.10;53.10;;;;;;5004529;28;20046;-46
2022/03/25 02:39:38;;;;;;;32.40;21.10;;;7.10;53.20;;;;;;5008560;28;20078;-50
2022/03/25 02:42:05;;;;;;;35.30;20.73;;;7.10;53.20;;;;;;4979977;28;20490;-47
2022/03/25 02:44:36;;;;;;;33.63;20.13;;;7.00;53.20;;;;;;4977996;28;20054;-47
2022/03/25 02:47:03;;;;;;;33.75;20.70;;;7.00;53.20;;;;;;4994887;28;20050;-46
2022/03/25 02:49:33;;;;;;;32.75;20.48;;;7.00;53.30;;;;;;4989329;28;20050;-50
2022/03/25 02:52:04;;;;;;;34.55;19.77;;;7.00;53.60;;;;;;4988910;28;20494;-51
2022/03/25 02:54:33;;;;;;;31.80;19.60;;;7.00;53.40;;;;;;4993419;28;20054;-49
2022/03/25 02:57:01;;;;;;;34.65;19.75;;;6.90;53.60;;;;;;4986248;28;20046;-50
2022/03/25 02:59:30;;;;;;;36.15;21.60;;;6.90;53.50;;;;;;4983746;28;20446;-46
2022/03/25 03:02:00;;;;;;;35.63;21.60;;;6.90;53.50;;;;;;4983477;28;20108;-51
2022/03/25 03:04:41;;;;;;;35.53;21.10;;;6.90;53.50;;;;;;4990262;28;20047;-49
2022/03/25 03:07:08;;;;;;;37.97;22.30;;;6.90;53.50;;;;;;4988796;28;20046;-48
2022/03/25 03:09:35;;;;;;;34.53;21.05;;;6.90;53.50;;;;;;4973492;28;20039;-52
2022/03/25 03:12:03;;;;;;;34.65;21.83;;;6.90;53.50;;;;;;4974212;28;20050;-46
2022/03/25 03:14:36;;;;;;;33.63;19.90;;;6.80;53.50;;;;;;4979002;28;20054;-48
2022/03/25 03:17:10;;;;;;;34.38;20.15;;;6.80;53.70;;;;;;4988186;28;20410;-46
2022/03/25 03:19:37;;;;;;;34.25;20.88;;;6.80;53.70;;;;;;5001669;28;20051;-51
2022/03/25 03:22:11;;;;;;;35.63;21.80;;;6.80;53.60;;;;;;4986039;28;20054;-51
2022/03/25 03:24:40;;;;;;;32.67;18.95;;;6.70;53.60;;;;;;4984998;28;20050;-46
2022/03/25 03:27:16;;;;;;;40.40;20.35;;;6.70;53.60;;;;;;4988538;28;20125;-49
2022/03/25 03:29:50;;;;;;;34.00;20.15;;;6.70;53.70;;;;;;4980035;28;20054;-49
2022/03/25 03:32:19;;;;;;;30.92;19.98;;;6.70;53.60;;;;;;4975089;28;20089;-46
2022/03/25 03:34:46;;;;;;;32.50;18.58;;;6.70;53.80;;;;;;4972800;28;20059;-49
2022/03/25 03:37:18;;;;;;;37.13;20.50;;;6.60;53.80;;;;;;4976915;28;20043;-51
2022/03/25 03:39:44;;;;;;;31.48;18.70;;;6.60;53.90;;;;;;4978128;28;20038;-46
2022/03/25 03:42:11;;;;;;;34.58;20.75;;;6.60;53.90;;;;;;4984356;28;20446;-49
2022/03/25 03:44:40;;;;;;;36.92;21.45;;;6.60;53.90;;;;;;4992588;28;20671;-48
2022/03/25 03:47:08;;;;;;;37.55;19.10;;;6.60;54.00;;;;;;4981402;28;20411;-46
2022/03/25 03:49:35;;;;;;;34.92;20.15;;;6.50;54.70;;;;;;4982089;28;20039;-49
2022/03/25 03:52:05;;;;;;;29.77;19.33;;;6.60;54.10;;;;;;4987571;28;20049;-49
2022/03/25 03:54:32;;;;;;;38.22;20.15;;;6.50;54.10;;;;;;4979974;28;20034;-47
2022/03/25 03:57:04;;;;;;;34.58;20.80;;;6.50;54.20;;;;;;4987009;28;20042;-46
2022/03/25 03:59:31;;;;;;;39.15;21.35;;;6.50;54.30;;;;;;4986823;28;20034;-46
2022/03/25 04:02:03;;;;;;;34.65;19.42;;;6.50;54.20;;;;;;4983900;28;20046;-46
2022/03/25 04:04:33;;;;;;;34.55;20.50;;;6.50;54.10;;;;;;4991989;28;20450;-49
2022/03/25 04:07:05;;;;;;;36.13;20.08;;;6.40;54.10;;;;;;4996668;28;20054;-48
2022/03/25 04:09:32;;;;;;;40.35;21.88;;;6.40;54.10;;;;;;4983917;28;20042;-51
2022/03/25 04:12:01;;;;;;;36.78;22.42;;;6.40;54.20;;;;;;4974140;28;20057;-51
2022/03/25 04:14:28;;;;;;;35.00;18.92;;;6.40;54.30;;;;;;4970179;28;20047;-49
2022/03/25 04:16:55;;;;;;;34.47;20.77;;;6.40;54.30;;;;;;4977736;28;20569;-50
2022/03/25 04:19:22;;;;;;;36.72;19.73;;;6.30;54.40;;;;;;4990203;28;20096;-48
2022/03/25 04:21:52;;;;;;;34.72;20.02;;;6.30;54.40;;;;;;4985455;28;20070;-50
2022/03/25 04:24:19;;;;;;;31.92;19.55;;;6.30;54.50;;;;;;4989710;28;20065;-51
2022/03/25 04:26:46;;;;;;;34.65;19.80;;;6.30;54.40;;;;;;4980271;28;20042;-52
2022/03/25 04:29:19;;;;;;;36.28;19.98;;;6.30;54.50;;;;;;4983231;28;20047;-47
2022/03/25 04:31:47;;;;;;;35.33;21.13;;;6.30;54.50;;;;;;4991195;28;20044;-48
2022/03/25 04:34:14;;;;;;;34.00;20.05;;;6.20;54.50;;;;;;4980974;28;20050;-49
2022/03/25 04:36:41;;;;;;;34.20;20.10;;;6.20;54.50;;;;;;4978572;28;20498;-51
2022/03/25 04:39:10;;;;;;;32.67;20.98;;;6.20;54.60;;;;;;4983555;28;20051;-49
2022/03/25 04:41:37;;;;;;;36.60;20.90;;;6.20;54.70;;;;;;4952492;28;20564;-47
2022/03/25 04:44:05;;;;;;;33.72;19.40;;;6.20;54.70;;;;;;4969776;28;20058;-46
2022/03/25 04:46:35;;;;;;;32.33;19.10;;;6.20;54.80;;;;;;4979969;28;20105;-51
2022/03/25 04:49:06;;;;;;;40.35;21.05;;;6.10;54.70;;;;;;4991673;28;20042;-48
2022/03/25 04:51:32;;;;;;;33.63;18.65;;;6.10;54.90;;;;;;4982544;28;20093;-49
2022/03/25 04:53:59;;;;;;;35.50;19.92;;;6.10;54.80;;;;;;4976540;28;20602;-50
2022/03/25 04:56:29;;;;;;;32.05;18.65;;;6.10;54.80;;;;;;4986226;28;20039;-46
2022/03/25 04:58:56;;;;;;;36.95;20.92;;;6.10;54.90;;;;;;4969053;28;20042;-47
2022/03/25 05:01:23;;;;;;;33.88;19.83;;;6.10;54.80;;;;;;4986105;28;20039;-49
2022/03/25 05:03:50;;;;;;;33.65;19.83;;;6.00;54.80;;;;;;4976815;28;20594;-46
2022/03/25 05:06:22;;;;;;;33.30;18.85;;;6.00;54.80;;;;;;4988531;28;20785;-46
2022/03/25 05:08:48;;;;;;;38.53;21.20;;;6.00;55.00;;;;;;4979492;28;20043;-50
2022/03/25 05:11:18;;;;;;;32.95;19.17;;;6.00;55.00;;;;;;4974446;28;20097;-47
2022/03/25 05:13:48;;;;;;;37.03;19.73;;;6.00;54.90;;;;;;4969928;28;20478;-47
2022/03/25 05:16:17;;;;;;;33.97;17.60;;;5.90;54.90;;;;;;4970575;28;20073;-50
2022/03/25 05:18:44;;;;;;;31.30;19.33;;;6.00;55.00;;;;;;4973917;28;20034;-46
2022/03/25 05:21:10;;;;;;;33.83;19.33;;;5.90;55.00;;;;;;4963992;28;20503;-47
2022/03/25 05:23:37;;;;;;;31.05;17.85;;;5.90;55.00;;;;;;4972864;28;20042;-48
2022/03/25 05:26:04;;;;;;;31.05;18.02;;;5.90;55.00;;;;;;4971882;28;20050;-48
2022/03/25 05:28:36;;;;;;;30.10;16.77;;;5.90;55.10;;;;;;4969269;28;20564;-51
2022/03/25 05:31:03;;;;;;;37.25;19.38;;;5.90;55.10;;;;;;4968648;28;20568;-46
2022/03/25 05:33:30;;;;;;;36.05;18.90;;;5.80;55.10;;;;;;4987737;28;20426;-46
2022/03/25 05:35:57;;;;;;;30.77;18.88;;;5.90;55.30;;;;;;4982094;28;20108;-52
2022/03/25 05:38:27;;;;;;;34.65;19.92;;;5.90;55.40;;;;;;4968144;28;20062;-49
2022/03/25 05:40:54;;;;;;;36.50;20.17;;;5.80;55.30;;;;;;4975738;28;20093;-46
2022/03/25 05:43:21;;;;;;;43.03;23.33;;;5.80;55.50;;;;;;4982197;28;20057;-49
2022/03/25 05:45:48;;;;;;;39.47;22.17;;;5.80;55.60;;;;;;4990377;28;20100;-46
2022/03/25 05:48:15;;;;;;;40.10;22.23;;;5.80;55.60;;;;;;4972915;28;20051;-49
2022/03/25 05:50:42;;;;;;;40.30;21.63;;;5.80;55.70;;;;;;4966254;28;20525;-49
2022/03/25 05:53:09;;;;;;;40.17;22.60;;;5.80;55.80;;;;;;4980597;28;20039;-46
2022/03/25 05:55:38;;;;;;;38.08;20.40;;;5.80;55.90;;;;;;4985286;28;20066;-48
2022/03/25 05:58:06;;;;;;;36.15;21.45;;;5.90;55.90;;;;;;4982879;28;20042;-47
2022/03/25 06:00:34;;;;;;;38.47;21.42;;;5.90;56.00;;;;;;4990724;28;20070;-45
2022/03/25 06:03:01;;;;;;;35.63;20.75;;;5.80;56.00;;;;;;4976280;28;20054;-51
2022/03/25 06:05:28;;;;;;;37.28;20.85;;;5.90;56.10;;;;;;4986008;28;20478;-46
2022/03/25 06:07:55;;;;;;;37.72;20.00;;;5.90;56.20;;;;;;4976175;28;20097;-47
2022/03/25 06:10:23;;;;;;;37.85;22.02;;;5.90;56.30;;;;;;4974514;28;20094;-46
2022/03/25 06:12:49;;;;;;;34.78;20.42;;;5.90;56.30;;;;;;4971438;28;20101;-46
2022/03/25 06:15:16;;;;;;;34.90;19.90;;;5.90;56.40;;;;;;4970912;28;20459;-50
2022/03/25 06:17:47;;;;;;;37.83;21.75;;;6.00;56.50;;;;;;4964812;28;20047;-50
2022/03/25 06:20:18;;;;;;;41.97;22.33;;;6.00;56.90;;;;;;4973176;28;20050;-46
2022/03/25 06:22:45;;;;;;;38.90;20.95;;;6.00;56.90;;;;;;4981805;28;20098;-46
2022/03/25 06:25:13;;;;;;;42.67;22.48;;;6.00;56.70;;;;;;4981146;28;20049;-47
2022/03/25 06:27:53;;;;;;;41.88;22.40;;;6.10;56.90;;;;;;4974499;28;20046;-49
2022/03/25 06:30:23;;;;;;;37.17;22.52;;;6.10;58.00;;;;;;4972709;28;20133;-47
2022/03/25 06:32:50;;;;;;;41.60;23.02;;;6.10;57.10;;;;;;4977236;28;20100;-47
2022/03/25 06:35:17;;;;;;;42.53;22.77;;;6.20;57.10;;;;;;4984675;28;20097;-48
2022/03/25 06:37:44;;;;;;;44.05;23.73;;;6.20;57.20;;;;;;4979309;28;20042;-47
2022/03/25 06:40:12;;;;;;;47.75;24.35;;;6.20;57.20;;;;;;4969613;28;20050;-46
2022/03/25 06:42:40;;;;;;;39.95;23.25;;;6.30;57.40;;;;;;4970521;28;20116;-49
2022/03/25 06:45:09;;;;;;;41.45;24.08;;;6.30;57.50;;;;;;4982447;28;20094;-48
2022/03/25 06:47:36;;;;;;;44.88;24.65;;;6.40;57.60;;;;;;4978460;28;20045;-47
2022/03/25 06:50:05;;;;;;;46.42;23.83;;;6.40;57.70;;;;;;4971073;28;20602;-48
2022/03/25 06:52:32;;;;;;;46.90;25.25;;;6.50;57.80;;;;;;4986470;28;20043;-48
2022/03/25 06:54:59;;;;;;;40.72;24.92;;;6.50;57.80;;;;;;5003991;28;20039;-49
2022/03/25 06:57:26;;;;;;;47.30;26.38;;;6.60;57.90;;;;;;4954178;28;20053;-50
2022/03/25 06:59:53;;;;;;;47.78;26.42;;;6.60;57.90;;;;;;4984536;28;20038;-47
2022/03/25 07:02:21;;;;;;;47.47;27.30;;;6.70;58.10;;;;;;4977014;28;20047;-48
2022/03/25 07:04:48;;;;;;;50.47;26.95;;;6.70;58.10;;;;;;4971213;28;20042;-47
2022/03/25 07:07:21;;;;;;;48.92;26.38;;;6.80;58.30;;;;;;5004303;22;20526;31
2022/03/25 07:09:48;;;;;;;53.70;28.20;;;6.90;58.60;;;;;;5010830;28;20395;-44
2022/03/25 07:12:16;;;;;;;53.88;28.65;;;6.90;58.70;;;;;;5012232;28;20046;-44
2022/03/25 07:14:43;;;;;;;51.97;29.70;;;7.00;59.00;;;;;;5012918;28;20034;-44
2022/03/25 07:17:10;;;;;;;59.50;32.63;;;7.10;59.20;;;;;;5011453;28;20092;-44
2022/03/25 07:19:37;;;;;;;61.88;32.05;;;7.10;59.50;;;;;;5013257;28;20042;-44
2022/03/25 07:22:11;;;;;;;64.38;36.03;;;7.30;60.60;;;;;;5025683;28;20042;-45
2022/03/25 07:24:37;;;;;;;64.82;36.63;;;7.40;61.30;;;;;;5009003;28;20575;-44
2022/03/25 07:27:04;;;;;;;66.93;39.50;;;7.50;60.50;;;;;;5030587;28;20034;-44
2022/03/25 07:29:31;;;;;;;68.65;38.28;;;7.50;60.60;;;;;;5032538;28;20045;-44
2022/03/25 07:31:57;;;;;;;63.00;36.28;;;7.70;60.90;;;;;;5030690;28;20505;-44
2022/03/25 07:34:26;;;;;;;68.93;38.97;;;7.80;61.00;;;;;;5021175;28;20053;-45
2022/03/25 07:36:53;;;;;;;64.45;36.63;;;7.90;61.10;;;;;;5031944;28;20455;-44
2022/03/25 07:39:20;;;;;;;75.75;41.13;;;8.00;61.20;;;;;;5016790;28;20049;-45
2022/03/25 07:41:47;;;;;;;70.43;39.78;;;8.10;61.20;;;;;;5010734;28;20121;-44
2022/03/25 07:44:13;;;;;;;72.65;41.63;;;8.20;61.10;;;;;;5016507;28;20053;-46
2022/03/25 07:46:42;;;;;;;70.55;41.10;;;8.40;61.10;;;;;;5031493;28;20041;-45
2022/03/25 07:49:09;;;;;;;67.82;40.35;;;8.40;61.30;;;;;;5028276;28;20107;-44
2022/03/25 07:51:36;;;;;;;74.85;42.47;;;8.60;60.90;;;;;;5022100;28;20049;-45
2022/03/25 07:54:06;;;;;;;78.38;43.08;;;8.70;60.90;;;;;;5031599;28;20048;-45
2022/03/25 07:56:33;;;;;;;68.95;42.03;;;8.80;61.40;;;;;;5031277;28;20100;-45
2022/03/25 07:59:00;;;;;;;71.80;43.17;;;8.90;61.00;;;;;;5027650;28;20041;-46
2022/03/25 08:01:30;;;;;;;73.57;42.45;;;9.00;60.70;;;;;;5016447;28;20121;-45
2022/03/25 08:03:57;;;;;;;73.70;43.70;;;9.10;60.50;;;;;;5020084;28;20469;-46
2022/03/25 08:06:24;;;;;;;73.55;42.97;;;9.20;60.40;;;;;;5031186;28;20111;-45
2022/03/25 08:08:53;;;;;;;70.63;42.70;;;9.30;60.30;;;;;;5016383;28;20045;-43
2022/03/25 08:11:20;;;;;;;73.65;44.17;;;9.40;60.30;;;;;;5018642;28;20124;-45
2022/03/25 08:13:49;;;;;;;77.43;43.40;;;9.50;60.10;;;;;;5024456;28;20037;-45
2022/03/25 08:16:19;;;;;;;73.45;44.25;;;9.60;60.20;;;;;;5013323;28;20046;-45
2022/03/25 08:18:46;;;;;;;69.00;43.05;;;9.70;59.80;;;;;;5015257;28;20076;-46
2022/03/25 08:21:13;;;;;;;67.53;44.13;;;9.70;59.70;;;;;;5011344;28;20089;-44
2022/03/25 08:29:11;;;;;;;68.70;40.97;;;10.00;59.40;;;;;;5018549;28;20042;-45
2022/03/25 08:31:46;;;;;;;;;;;10.10;59.20;;;;;;5021280;28;20124;-45
2022/03/25 08:34:15;;;;;;;65.50;39.40;;;10.20;59.40;;;;;;5019770;28;20008;-45
2022/03/25 08:36:43;;;;;;;70.35;40.65;;;10.30;58.30;;;;;;5030580;28;20490;-44
2022/03/25 08:39:11;;;;;;;72.20;42.63;;;10.40;58.70;;;;;;5019498;28;20486;-45
2022/03/25 08:41:38;;;;;;;66.70;41.67;;;10.50;58.90;;;;;;5022538;28;20115;-45
2022/03/25 08:44:06;;;;;;;71.47;45.13;;;10.50;58.30;;;;;;5030768;28;20081;-46
2022/03/25 08:46:34;;;;;;;68.88;42.80;;;10.60;58.30;;;;;;5009092;28;20498;-46
2022/03/25 08:49:04;;;;;;;66.90;43.50;;;10.70;58.60;;;;;;5012882;28;20050;-46
2022/03/25 08:51:31;;;;;;;65.63;42.13;;;10.80;58.50;;;;;;5011137;28;20072;-45
2022/03/25 08:54:00;;;;;;;65.63;41.15;;;10.80;58.40;;;;;;5025541;28;20050;-46
2022/03/25 08:56:30;;;;;;;66.80;42.25;;;11.00;58.30;;;;;;5030216;28;20033;-46
2022/03/25 08:58:58;;;;;;;66.43;41.90;;;11.10;58.00;;;;;;5016329;28;20059;-46
2022/03/25 09:01:26;;;;;;;68.10;41.33;;;11.10;57.60;;;;;;5028667;28;20123;-45
2022/03/25 09:03:53;;;;;;;66.78;41.45;;;11.20;57.60;;;;;;5030477;28;20128;-46
2022/03/25 09:06:21;;;;;;;65.90;41.65;;;11.30;57.50;;;;;;5017079;28;20103;-45
2022/03/25 09:08:49;;;;;;;64.32;42.15;;;11.40;57.50;;;;;;5025136;28;20041;-44
2022/03/25 09:11:16;;;;;;;64.93;39.40;;;11.50;57.20;;;;;;5029878;28;20527;-44
2022/03/25 09:13:43;;;;;;;62.75;39.78;;;11.60;57.40;;;;;;5009693;28;20136;-44
2022/03/25 09:16:13;;;;;;;65.78;42.42;;;11.70;57.50;;;;;;5011822;28;20048;-46
2022/03/25 09:18:40;;;;;;;62.00;39.45;;;11.80;56.80;;;;;;5015124;28;20534;-45
2022/03/25 09:21:07;;;;;;;61.58;38.88;;;11.90;57.30;;;;;;5030308;28;20405;-46
2022/03/25 09:23:35;;;;;;;63.95;40.60;;;12.00;56.60;;;;;;5030139;28;20045;-44
2022/03/25 09:26:02;;;;;;;64.88;39.55;;;12.10;56.70;;;;;;5020444;28;20049;-44
2022/03/25 09:28:29;;;;;;;65.72;40.72;;;12.20;56.70;;;;;;5028637;28;20049;-46
2022/03/25 09:30:56;;;;;;;62.47;41.42;;;12.30;56.60;;;;;;5030124;28;20071;-45
2022/03/25 09:33:26;;;;;;;64.10;40.03;;;12.40;57.50;;;;;;5029848;28;20076;-44
2022/03/25 09:35:53;;;;;;;67.63;42.28;;;12.50;57.00;;;;;;5014772;28;20053;-47
2022/03/25 09:38:20;;;;;;;65.95;40.55;;;12.60;57.10;;;;;;5021006;28;20468;-45
2022/03/25 09:40:47;;;;;;;72.50;42.13;;;12.70;56.70;;;;;;5030308;28;20053;-47
2022/03/25 09:43:17;;;;;;;62.00;40.55;;;12.90;56.40;;;;;;5012199;28;20563;-46
2022/03/25 09:45:44;;;;;;;58.80;40.85;;;13.00;56.60;;;;;;5011982;28;20052;-45
2022/03/25 09:48:13;;;;;;;66.40;41.42;;;13.20;56.50;;;;;;5026569;28;20533;-44
2022/03/25 09:50:41;;;;;;;67.68;42.88;;;13.20;56.50;;;;;;5017020;28;20041;-45
2022/03/25 09:53:29;;;;;;;64.30;41.10;;;13.30;56.20;;;;;;5015249;28;20117;-44
2022/03/25 09:55:59;;;;;;;65.43;39.08;;;13.40;55.80;;;;;;5023153;28;20038;-45
2022/03/25 09:58:28;;;;;;;62.90;38.17;;;13.50;54.90;;;;;;5030063;28;20045;-45
2022/03/25 10:00:55;;;;;;;63.20;41.08;;;13.60;54.60;;;;;;5029882;28;20468;-45
2022/03/25 10:03:31;;;;;;;57.92;35.58;;;13.70;54.60;;;;;;5024275;28;20038;-46
2022/03/25 10:06:01;;;;;;;55.10;34.22;;;13.80;53.80;;;;;;5021179;28;20060;-44
2022/03/25 10:08:39;;;;;;;53.47;33.83;;;13.80;53.40;;;;;;5010345;28;20096;-46
2022/03/25 10:11:27;;;;;;;65.90;40.13;;;14.00;53.10;;;;;;5009371;28;20038;-46
2022/03/25 10:14:18;;;;;;;62.97;39.85;;;14.10;54.10;;;;;;5014164;28;20033;-45
2022/03/25 10:16:46;;;;;;;63.35;39.42;;;14.20;54.60;;;;;;5022081;28;20103;-43
2022/03/25 10:19:19;;;;;;;58.38;39.28;;;14.30;53.90;;;;;;5029629;28;20487;-48
2022/03/25 10:21:59;;;;;;;59.08;37.88;;;14.40;53.60;;;;;;5019071;28;20087;-45
2022/03/25 10:24:48;;;;;;;54.90;35.15;;;14.50;53.10;;;;;;5028807;28;20120;-44
2022/03/25 10:27:29;;;;;;;43.20;26.67;;;14.60;52.40;;;;;;5024826;28;20042;-43
2022/03/25 10:29:56;;;;;;;41.75;27.52;;;14.70;50.60;;;;;;5011539;28;20049;-43
2022/03/25 10:32:25;;;;;;;45.75;27.40;;;14.80;51.00;;;;;;5013831;28;20121;-42
2022/03/25 10:35:04;;;;;;;43.42;27.85;;;14.90;50.10;;;;;;5014782;28;20497;-44
2022/03/25 10:37:31;;;;;;;46.35;29.48;;;15.00;48.70;;;;;;5032005;28;20049;-43
2022/03/25 10:39:58;;;;;;;45.30;28.02;;;15.10;49.00;;;;;;5028814;28;20053;-44
2022/03/25 10:42:25;;;;;;;34.83;22.98;;;15.20;48.50;;;;;;5022038;28;20046;-44
2022/03/25 10:44:57;;;;;;;42.08;25.80;;;15.30;47.40;;;;;;5022702;28;20112;-44
2022/03/25 10:47:26;;;;;;;40.05;24.30;;;15.40;47.10;;;;;;5010767;28;20509;-42
2022/03/25 10:49:55;;;;;;;36.97;22.52;;;15.50;46.50;;;;;;5023496;28;20057;-43
2022/03/25 10:52:30;;;;;;;38.95;23.80;;;15.50;46.00;;;;;;5016286;28;20493;-42
2022/03/25 10:55:18;;;;;;;36.22;23.85;;;15.70;45.60;;;;;;5032861;28;20055;-43
2022/03/25 10:57:58;;;;;;;40.50;23.58;;;15.70;45.00;;;;;;5009326;28;20084;-44
2022/03/25 11:00:26;;;;;;;36.17;22.27;;;15.80;45.00;;;;;;5017281;28;20066;-44
2022/03/25 11:02:54;;;;;;;39.55;24.83;;;15.90;45.40;;;;;;5031976;28;20493;-44
2022/03/25 11:05:21;;;;;;;38.78;23.48;;;16.00;45.50;;;;;;5032265;28;20525;-43
2022/03/25 11:07:49;;;;;;;39.67;23.90;;;16.10;45.20;;;;;;5023814;28;20045;-48
2022/03/25 11:10:17;;;;;;;37.47;22.92;;;16.20;44.90;;;;;;5017755;28;20508;-43
2022/03/25 11:12:46;;;;;;;37.55;23.63;;;16.20;44.90;;;;;;5023302;28;20037;-43
2022/03/25 11:15:18;;;;;;;36.45;23.10;;;16.20;44.90;;;;;;5013358;28;20042;-44
2022/03/25 11:17:46;;;;;;;37.67;23.25;;;16.30;44.80;;;;;;5027740;28;20561;-44
2022/03/25 11:20:18;;;;;;;41.17;24.33;;;16.40;44.60;;;;;;5031117;28;20493;-43
2022/03/25 11:22:55;;;;;;;38.85;23.63;;;16.40;44.10;;;;;;5031371;28;20061;-44
2022/03/25 11:25:24;;;;;;;38.80;24.80;;;16.50;44.30;;;;;;5019056;28;20103;-44
2022/03/25 11:28:05;;;;;;;37.45;24.38;;;16.50;44.50;;;;;;5020847;28;20045;-43
2022/03/25 11:30:35;;;;;;;40.08;25.15;;;16.60;44.30;;;;;;5019792;28;20111;-44
2022/03/25 11:33:06;;;;;;;42.17;26.27;;;16.80;44.90;;;;;;5020536;28;20108;-43
2022/03/25 11:35:41;;;;;;;37.00;26.23;;;16.70;44.80;;;;;;5030737;28;20076;-42
2022/03/25 11:38:11;;;;;;;49.60;27.98;;;16.80;44.60;;;;;;5018482;28;20046;-44
2022/03/25 11:40:44;;;;;;;38.22;24.20;;;16.80;44.30;;;;;;5022682;28;20493;-45
2022/03/25 11:43:15;;;;;;;44.67;26.35;;;16.90;44.30;;;;;;5030897;28;20042;-44
2022/03/25 11:45:44;;;;;;;42.78;27.25;;;17.00;44.20;;;;;;5005868;28;20060;-46
2022/03/25 11:48:11;;;;;;;39.35;25.65;;;17.10;44.20;;;;;;5016347;28;20100;-43
2022/03/25 11:50:37;;;;;;;41.47;25.88;;;17.10;44.40;;;;;;5023228;28;20037;-44
2022/03/25 11:53:10;;;;;;;41.55;26.08;;;17.20;44.50;;;;;;5030525;28;20088;-43
2022/03/25 11:56:09;;;;;;;39.08;23.55;;;17.30;43.60;;;;;;5023611;28;20045;-44
2022/03/25 11:58:55;;;;;;;37.58;24.00;;;17.40;43.80;;;;;;5028519;28;20045;-44
2022/03/25 12:01:23;;;;;;;35.47;23.00;;;17.50;43.90;;;;;;5030297;28;20497;-44
2022/03/25 12:03:55;;;;;;;36.05;24.73;;;17.50;43.30;;;;;;5030425;28;20053;-44
2022/03/25 12:06:28;;;;;;;38.58;23.50;;;17.70;43.00;;;;;;4994785;28;20050;-45
2022/03/25 12:08:55;;;;;;;35.50;22.23;;;17.70;42.80;;;;;;4989536;28;1035558;-44
2022/03/25 12:11:49;;;;;;;41.80;25.42;;;17.80;42.90;;;;;;5030218;28;20049;-43
2022/03/25 12:14:31;;;;;;;34.45;22.92;;;17.90;42.20;;;;;;5008877;28;20670;-45
2022/03/25 12:16:59;;;;;;;35.25;23.75;;;17.90;41.80;;;;;;5023914;28;20095;-45
2022/03/25 12:19:26;;;;;;;38.15;23.75;;;18.00;42.20;;;;;;5031107;28;20476;-44
2022/03/25 12:22:00;;;;;;;38.38;23.48;;;18.10;42.00;;;;;;5031099;28;20068;-44
2022/03/25 12:24:30;;;;;;;33.03;22.08;;;18.20;41.20;;;;;;5014501;28;20053;-43
2022/03/25 12:27:00;;;;;;;34.28;21.58;;;18.30;41.70;;;;;;5012268;28;20038;-44
2022/03/25 12:29:31;;;;;;;31.50;20.17;;;18.40;41.50;;;;;;5024068;28;20042;-44
2022/03/25 12:32:06;;;;;;;29.55;20.17;;;18.40;41.00;;;;;;5023443;28;20049;-43
2022/03/25 12:35:01;;;;;;;32.00;19.30;;;18.50;40.70;;;;;;5015033;28;20045;-43
2022/03/25 12:37:31;;;;;;;31.35;21.17;;;18.70;40.00;;;;;;5019424;28;20042;-43
2022/03/25 12:40:19;;;;;;;31.98;20.70;;;18.80;39.50;;;;;;5026931;28;20041;-43
2022/03/25 12:42:54;;;;;;;28.55;18.80;;;18.90;39.30;;;;;;4999351;28;20042;-42
2022/03/25 12:45:34;;;;;;;30.42;19.40;;;19.00;39.40;;;;;;5024850;28;20183;-45
2022/03/25 12:48:15;;;;;;;29.33;18.48;;;19.10;39.10;;;;;;5030841;28;20413;-44
2022/03/25 12:50:53;;;;;;;28.27;19.35;;;19.20;38.10;;;;;;5031126;28;20041;-45
2022/03/25 12:53:26;;;;;;;29.50;19.20;;;19.30;38.30;;;;;;5018724;28;20088;-46